Ust' Kalmanka, Russia
Current Conditions -  °F | °C
As of 4:30 PM on Wednesday 22 Oct 2014 (Local Time) from UNBB Reporting Station
Overcast Overcast  
Wind Chill: 28°   Ceiling: 10000
Heat Index: 37°   Visibility: 6mi
Dew Point: 27°   Wind: 16mph
Humidity: 65%   Direction: 230°SW
Pressure: 30.12"   Gusts: NA
Location:  52.12°N, 83.32°E
Report Text: UNBB 220930Z 23007MPS 9999 SCT016 OVC100 03/M03 Q1020 NOSIG RMKQFE743/0991 24CLRD66
Loading
Personal Weather Stations






























Interactive Weather Map New forecast layout! Learn more

10-Day Weather Forecast

Advertisements
Track Severe Weather on mobile